createdAt,value
2018-06-25T00:02:08.884Z,86.24
2018-06-25T00:04:38.575Z,85.36
2018-06-25T00:07:08.233Z,86.13
2018-06-25T00:09:37.903Z,86.16
2018-06-25T00:12:07.613Z,86.38
2018-06-25T00:14:37.275Z,86.79
2018-06-25T00:17:06.941Z,86.22
2018-06-25T00:19:36.716Z,86.33
2018-06-25T00:22:06.439Z,86.01
2018-06-25T00:24:36.136Z,86.31
2018-06-25T00:27:05.837Z,85.83
2018-06-25T00:29:35.533Z,86.73
2018-06-25T00:32:05.295Z,86.22
2018-06-25T00:34:34.978Z,86.39
2018-06-25T00:37:04.640Z,86.16
2018-06-25T00:39:34.565Z,85.83
2018-06-25T00:42:04.249Z,85.64
2018-06-25T00:44:33.960Z,85.85
2018-06-25T00:47:03.720Z,85.72
2018-06-25T00:49:33.383Z,85.01
2018-06-25T00:52:03.157Z,85.38
2018-06-25T00:54:32.837Z,86.10
2018-06-25T00:57:02.512Z,85.46
2018-06-25T00:59:43.253Z,85.12
2018-06-25T01:02:12.879Z,86.05
2018-06-25T01:04:49.251Z,86.31
2018-06-25T01:07:19.322Z,85.20
2018-06-25T01:09:49.289Z,85.00
2018-06-25T01:12:19.027Z,85.74
2018-06-25T01:14:48.724Z,86.00
2018-06-25T01:17:18.486Z,85.75
2018-06-25T01:19:48.156Z,85.59
2018-06-25T01:22:17.855Z,86.88
2018-06-25T01:24:47.535Z,86.54
2018-06-25T01:27:17.256Z,85.65
2018-06-25T01:29:46.943Z,85.84
2018-06-25T01:32:16.612Z,86.04
2018-06-25T01:34:52.761Z,85.65
2018-06-25T01:37:22.419Z,85.88
2018-06-25T01:39:52.136Z,86.58
2018-06-25T01:42:21.798Z,86.19
2018-06-25T01:44:51.445Z,86.05
2018-06-25T01:47:21.131Z,86.22
2018-06-25T01:49:50.772Z,86.04
2018-06-25T01:52:20.431Z,86.94
2018-06-25T01:54:50.136Z,86.50
2018-06-25T01:57:19.780Z,86.28
2018-06-25T01:59:49.458Z,85.67
2018-06-25T02:02:19.250Z,86.39
2018-06-25T02:04:48.920Z,86.78
2018-06-25T02:07:18.586Z,86.88
2018-06-25T02:09:48.288Z,86.02
2018-06-25T02:12:17.941Z,85.99
2018-06-25T02:14:47.613Z,85.54
2018-06-25T02:17:17.348Z,85.44
2018-06-25T02:19:47.038Z,85.98
2018-06-25T02:22:16.720Z,85.38
2018-06-25T02:24:46.452Z,85.97
2018-06-25T02:27:16.156Z,85.91
2018-06-25T02:29:45.804Z,85.97
2018-06-25T02:32:15.724Z,85.53
2018-06-25T02:34:45.429Z,85.93
2018-06-25T02:37:15.145Z,86.68
2018-06-25T02:39:44.792Z,87.14
2018-06-25T02:42:14.451Z,86.08
2018-06-25T02:44:44.169Z,85.73
2018-06-25T02:47:13.840Z,85.93
2018-06-25T02:49:43.492Z,85.74
2018-06-25T02:52:13.198Z,86.63
2018-06-25T02:54:42.861Z,87.07
2018-06-25T02:57:12.531Z,86.60
2018-06-25T02:59:42.247Z,87.03
2018-06-25T03:02:11.900Z,85.96
2018-06-25T03:04:41.573Z,86.67
2018-06-25T03:07:11.253Z,86.66
2018-06-25T03:09:40.968Z,86.70
2018-06-25T03:12:10.689Z,86.74
2018-06-25T03:14:40.596Z,86.30
2018-06-25T03:17:10.241Z,86.64
2018-06-25T03:19:39.907Z,85.49
2018-06-25T03:22:09.600Z,86.60
2018-06-25T03:24:39.256Z,85.61
2018-06-25T03:27:08.900Z,86.60
2018-06-25T03:29:38.585Z,86.68
2018-06-25T03:32:08.236Z,86.39
2018-06-25T03:34:37.896Z,86.35
2018-06-25T03:37:07.596Z,86.09
2018-06-25T03:39:37.265Z,86.46
2018-06-25T03:42:07.111Z,86.89
2018-06-25T03:44:36.781Z,86.64
2018-06-25T03:47:06.443Z,86.67
2018-06-25T03:49:36.220Z,86.65
2018-06-25T03:52:05.914Z,85.76
2018-06-25T03:54:35.601Z,85.58
2018-06-25T03:57:11.896Z,86.83
2018-06-25T03:59:41.543Z,86.68
2018-06-25T04:02:11.283Z,87.22
2018-06-25T04:04:40.940Z,85.93
2018-06-25T04:07:10.588Z,86.52
2018-06-25T04:09:40.296Z,86.32
2018-06-25T04:12:10.013Z,85.59
2018-06-25T04:14:39.638Z,86.48
2018-06-25T04:17:09.316Z,85.46
2018-06-25T04:19:38.961Z,85.41
2018-06-25T04:22:08.628Z,85.37
2018-06-25T04:24:38.304Z,86.40
2018-06-25T04:27:07.947Z,86.23
2018-06-25T04:29:37.608Z,85.57
2018-06-25T04:32:07.304Z,85.51
2018-06-25T04:34:36.955Z,85.87
2018-06-25T04:37:06.634Z,86.13
2018-06-25T04:39:36.369Z,85.47
2018-06-25T04:42:06.059Z,85.92
2018-06-25T04:44:35.739Z,84.90
2018-06-25T04:47:05.447Z,85.60
2018-06-25T04:49:35.115Z,85.83
2018-06-25T04:52:04.857Z,85.16
2018-06-25T04:54:34.648Z,84.41
2018-06-25T04:57:04.375Z,85.07
2018-06-25T04:59:34.071Z,85.10
2018-06-25T05:02:03.756Z,84.99
2018-06-25T05:04:33.389Z,84.89
2018-06-25T05:07:03.076Z,84.74
2018-06-25T05:09:32.720Z,85.09
2018-06-25T05:12:02.360Z,85.27
2018-06-25T05:14:32.069Z,84.94
2018-06-25T05:17:01.752Z,84.79
2018-06-25T05:19:31.405Z,85.11
2018-06-25T05:22:01.120Z,85.41
2018-06-25T05:24:30.820Z,84.34
2018-06-25T05:27:00.516Z,85.03
2018-06-25T05:29:30.324Z,85.53
2018-06-25T05:32:00.055Z,84.58
2018-06-25T05:34:29.758Z,84.13
2018-06-25T05:36:59.497Z,84.28
2018-06-25T05:39:29.205Z,83.38
2018-06-25T05:41:58.891Z,84.46
2018-06-25T05:44:28.614Z,83.14
2018-06-25T05:46:58.264Z,82.46
2018-06-25T05:49:27.928Z,81.83
2018-06-25T05:51:57.680Z,81.77
2018-06-25T05:54:27.563Z,81.67
2018-06-25T05:56:57.252Z,82.36
2018-06-25T05:59:26.929Z,82.47
2018-06-25T06:01:56.611Z,82.53
2018-06-25T06:04:26.297Z,81.19
2018-06-25T06:06:55.997Z,81.03
2018-06-25T06:09:25.641Z,82.06
2018-06-25T06:11:55.348Z,81.50
2018-06-25T06:14:25.000Z,81.81
2018-06-25T06:16:54.671Z,80.53
2018-06-25T06:19:24.371Z,81.31
2018-06-25T06:21:54.068Z,81.49
2018-06-25T06:24:23.751Z,81.35
2018-06-25T06:26:53.425Z,80.71
2018-06-25T06:29:23.052Z,81.70
2018-06-25T06:31:52.680Z,80.54
2018-06-25T06:34:22.363Z,80.73
2018-06-25T06:36:52.036Z,80.12
2018-06-25T06:39:21.679Z,79.99
2018-06-25T06:41:51.375Z,79.28
2018-06-25T06:44:21.013Z,79.23
2018-06-25T06:46:50.671Z,78.47
2018-06-25T06:49:21.903Z,78.52
2018-06-25T06:51:51.550Z,78.27
2018-06-25T06:54:21.260Z,77.70
2018-06-25T06:56:50.900Z,76.50
2018-06-25T06:59:20.591Z,75.10
2018-06-25T07:01:50.260Z,76.06
2018-06-25T07:04:19.886Z,75.56
2018-06-25T07:06:49.537Z,75.67
2018-06-25T07:09:19.239Z,77.19
2018-06-25T07:11:48.880Z,76.50
2018-06-25T07:14:18.528Z,76.94
2018-06-25T07:16:48.206Z,76.57
2018-06-25T07:19:17.817Z,77.23
2018-06-25T07:21:47.456Z,77.02
2018-06-25T07:24:17.133Z,77.12
2018-06-25T07:26:46.781Z,77.03
2018-06-25T07:29:16.469Z,76.95
2018-06-25T07:31:46.125Z,76.94
2018-06-25T07:34:15.789Z,76.89
2018-06-25T07:36:45.463Z,74.97
2018-06-25T07:39:15.140Z,74.31
2018-06-25T07:41:44.836Z,75.55
2018-06-25T07:44:14.505Z,76.03
2018-06-25T07:46:44.196Z,73.94
2018-06-25T07:49:13.864Z,74.52
2018-06-25T07:51:43.529Z,74.27
2018-06-25T07:54:13.440Z,73.18
2018-06-25T07:56:43.100Z,72.21
2018-06-25T07:59:12.729Z,72.96
2018-06-25T08:01:42.420Z,72.81
2018-06-25T08:04:12.037Z,74.28
2018-06-25T08:06:41.667Z,74.49
2018-06-25T08:09:12.178Z,73.97
2018-06-25T08:11:41.847Z,73.55
2018-06-25T08:14:11.508Z,73.64
2018-06-25T08:16:41.321Z,74.27
2018-06-25T08:19:10.934Z,72.06
2018-06-25T08:21:40.595Z,72.22
2018-06-25T08:24:10.348Z,71.77
2018-06-25T08:26:40.059Z,71.41
2018-06-25T08:29:10.688Z,71.34
2018-06-25T08:31:40.398Z,71.18
2018-06-25T08:34:10.212Z,71.42
2018-06-25T08:36:39.865Z,69.89
2018-06-25T08:39:11.816Z,70.78
2018-06-25T08:41:41.993Z,69.93
2018-06-25T08:44:11.688Z,70.27
2018-06-25T08:46:41.313Z,70.77
2018-06-25T08:49:11.182Z,69.22
2018-06-25T08:51:40.903Z,69.46
2018-06-25T08:54:10.584Z,70.36
2018-06-25T08:56:40.312Z,70.47
2018-06-25T08:59:10.207Z,69.50
2018-06-25T09:01:39.873Z,70.25
2018-06-25T09:04:09.587Z,70.17
2018-06-25T09:06:39.237Z,71.79
2018-06-25T09:09:10.940Z,70.97
2018-06-25T09:11:40.588Z,70.94
2018-06-25T09:14:10.377Z,70.27
2018-06-25T09:16:40.083Z,69.90
2018-06-25T09:19:09.729Z,69.57
2018-06-25T09:21:39.445Z,70.22
2018-06-25T09:24:09.121Z,69.97
2018-06-25T09:26:41.740Z,70.34
2018-06-25T09:29:12.403Z,71.37
2018-06-25T09:31:42.101Z,71.18
2018-06-25T09:34:16.821Z,71.32
2018-06-25T09:36:46.616Z,69.48
2018-06-25T09:39:16.304Z,70.97
2018-06-25T09:41:46.170Z,69.98
2018-06-25T09:44:15.721Z,70.51
2018-06-25T09:46:45.389Z,71.21
2018-06-25T09:49:15.094Z,71.55
2018-06-25T09:51:44.761Z,72.25
2018-06-25T09:54:14.466Z,71.79
2018-06-25T09:56:44.228Z,72.89
2018-06-25T09:59:13.909Z,72.32
2018-06-25T10:01:43.648Z,72.18
2018-06-25T10:04:13.359Z,71.97
2018-06-25T10:06:43.034Z,70.47
2018-06-25T10:09:13.165Z,70.90
2018-06-25T10:11:42.830Z,71.14
2018-06-25T10:14:12.542Z,70.29
2018-06-25T10:16:42.216Z,70.55
2018-06-25T10:19:11.880Z,71.11
2018-06-25T10:21:41.601Z,70.24
2018-06-25T10:24:11.284Z,70.79
2018-06-25T10:26:40.953Z,70.14
2018-06-25T10:29:10.646Z,69.91
2018-06-25T10:31:40.297Z,70.20
2018-06-25T10:34:09.949Z,70.81
2018-06-25T10:36:39.637Z,71.04
2018-06-25T10:39:10.803Z,70.92
2018-06-25T10:41:40.514Z,71.31
2018-06-25T10:44:10.339Z,70.53
2018-06-25T10:46:40.008Z,71.32
2018-06-25T10:49:09.737Z,70.81
2018-06-25T10:51:39.393Z,70.95
2018-06-25T10:54:09.311Z,71.17
2018-06-25T10:56:39.004Z,70.86
2018-06-25T10:59:08.664Z,71.00
2018-06-25T11:01:38.474Z,71.73
2018-06-25T11:04:08.272Z,71.71
2018-06-25T11:06:37.989Z,72.42
2018-06-25T11:09:09.868Z,71.66
2018-06-25T11:11:39.553Z,72.12
2018-06-25T11:14:09.311Z,72.22
2018-06-25T11:16:39.029Z,71.52
2018-06-25T11:19:08.717Z,71.29
2018-06-25T11:21:38.461Z,69.99
2018-06-25T11:24:08.168Z,70.32
2018-06-25T11:26:37.854Z,69.32
2018-06-25T11:29:07.573Z,69.57
2018-06-25T11:31:37.237Z,69.50
2018-06-25T11:34:06.908Z,68.34
2018-06-25T11:36:36.632Z,68.51
2018-06-25T11:39:08.862Z,66.69
2018-06-25T11:41:38.627Z,67.25
2018-06-25T11:44:08.339Z,67.40
2018-06-25T11:46:38.000Z,67.07
2018-06-25T11:49:07.709Z,67.06
2018-06-25T11:51:37.364Z,65.66
2018-06-25T11:54:07.772Z,66.36
2018-06-25T11:56:37.434Z,65.71
2018-06-25T11:59:07.148Z,65.49
2018-06-25T12:01:36.883Z,66.09
2018-06-25T12:04:06.602Z,64.99
2018-06-25T12:06:36.314Z,65.94
2018-06-25T12:09:07.874Z,65.01
2018-06-25T12:11:37.576Z,66.89
2018-06-25T12:14:07.326Z,66.95
2018-06-25T12:16:37.443Z,65.61
2018-06-25T12:19:07.122Z,66.02
2018-06-25T12:21:37.232Z,66.22
2018-06-25T12:24:06.947Z,65.42
2018-06-25T12:26:36.632Z,64.50
2018-06-25T12:29:06.366Z,65.09
2018-06-25T12:31:36.196Z,63.85
2018-06-25T12:34:05.829Z,63.77
2018-06-25T12:36:35.513Z,64.92
2018-06-25T12:39:08.231Z,63.79
2018-06-25T12:41:37.921Z,63.51
2018-06-25T12:44:08.469Z,64.01
2018-06-25T12:46:38.824Z,64.84
2018-06-25T12:49:08.508Z,64.22
2018-06-25T12:51:38.212Z,64.18
2018-06-25T12:54:07.852Z,64.72
2018-06-25T12:56:37.515Z,64.65
2018-06-25T12:59:07.223Z,64.84
2018-06-25T13:01:36.946Z,66.09
2018-06-25T13:04:06.898Z,64.26
2018-06-25T13:06:36.690Z,64.80
2018-06-25T13:09:09.500Z,65.02
2018-06-25T13:11:39.245Z,65.02
2018-06-25T13:14:09.303Z,65.43
2018-06-25T13:16:39.005Z,64.61
2018-06-25T13:19:08.715Z,64.76
2018-06-25T13:21:38.380Z,65.02
2018-06-25T13:24:08.104Z,64.83
2018-06-25T13:26:37.760Z,64.41
2018-06-25T13:29:07.524Z,63.05
2018-06-25T13:31:37.224Z,63.52
2018-06-25T13:34:06.900Z,61.91
2018-06-25T13:36:36.556Z,63.77
2018-06-25T13:39:08.611Z,63.72
2018-06-25T13:41:38.264Z,63.67
2018-06-25T13:44:07.924Z,63.31
2018-06-25T13:46:37.632Z,63.77
2018-06-25T13:49:07.288Z,64.02
2018-06-25T13:51:36.919Z,63.93
2018-06-25T13:54:06.750Z,64.02
2018-06-25T13:56:36.956Z,64.53
2018-06-25T13:59:06.708Z,64.03
2018-06-25T14:01:36.431Z,64.29
2018-06-25T14:04:06.472Z,64.99
2018-06-25T14:06:36.144Z,64.51
2018-06-25T14:09:08.265Z,63.94
2018-06-25T14:11:37.980Z,64.09
2018-06-25T14:14:08.395Z,64.61
2018-06-25T14:16:38.648Z,64.78
2018-06-25T14:19:08.458Z,65.04
2018-06-25T14:21:38.148Z,63.43
2018-06-25T14:24:13.106Z,64.33
2018-06-25T14:26:43.273Z,65.35
2018-06-25T14:29:18.290Z,64.81
2018-06-25T14:31:47.965Z,64.20
2018-06-25T14:34:23.076Z,63.87
2018-06-25T14:36:52.983Z,63.62
2018-06-25T14:39:22.736Z,62.26
2018-06-25T14:41:52.452Z,62.31
2018-06-25T14:44:22.140Z,62.88
2018-06-25T14:46:51.897Z,63.16
2018-06-25T14:49:21.614Z,63.77
2018-06-25T14:51:51.362Z,64.10
2018-06-25T14:54:21.077Z,65.17
2018-06-25T14:56:50.839Z,64.26
2018-06-25T14:59:20.655Z,65.25
2018-06-25T15:01:50.509Z,66.08
2018-06-25T15:04:20.285Z,64.97
2018-06-25T15:06:49.980Z,64.26
2018-06-25T15:09:19.646Z,65.05
2018-06-25T15:11:49.376Z,64.33
2018-06-25T15:14:19.064Z,64.17
2018-06-25T15:16:48.724Z,63.73
2018-06-25T15:19:18.567Z,64.27
2018-06-25T15:21:48.244Z,64.82
2018-06-25T15:24:17.990Z,63.94
2018-06-25T15:26:48.049Z,63.68
2018-06-25T15:29:17.693Z,64.60
2018-06-25T15:31:47.504Z,64.08
2018-06-25T15:34:17.173Z,63.64
2018-06-25T15:36:46.860Z,64.00
2018-06-25T15:39:16.714Z,63.54
2018-06-25T15:41:46.447Z,63.86
2018-06-25T15:44:16.122Z,64.22
2018-06-25T15:46:45.805Z,64.60
2018-06-25T15:49:15.453Z,63.42
2018-06-25T15:51:45.167Z,63.33
2018-06-25T15:54:14.810Z,63.52
2018-06-25T15:56:44.494Z,63.07
2018-06-25T15:59:14.221Z,63.55
2018-06-25T16:01:43.875Z,63.36
2018-06-25T16:04:13.592Z,63.67
2018-06-25T16:06:43.376Z,62.60
2018-06-25T16:09:13.065Z,62.40
2018-06-25T16:11:42.743Z,61.74
2018-06-25T16:14:12.453Z,62.63
2018-06-25T16:16:42.120Z,62.50
2018-06-25T16:19:11.787Z,61.88
2018-06-25T16:21:41.712Z,62.12
2018-06-25T16:24:11.345Z,61.94
2018-06-25T16:26:40.963Z,61.51
2018-06-25T16:29:10.727Z,62.63
2018-06-25T16:31:40.388Z,62.91
2018-06-25T16:34:10.134Z,62.14
2018-06-25T16:36:40.788Z,61.48
2018-06-25T16:39:12.339Z,60.67
2018-06-25T16:41:42.105Z,60.03
2018-06-25T16:44:11.751Z,59.99
2018-06-25T16:46:41.436Z,60.69
2018-06-25T16:49:11.154Z,60.87
2018-06-25T16:51:40.788Z,60.47
2018-06-25T16:54:10.487Z,60.35
2018-06-25T16:56:40.147Z,60.40
2018-06-25T16:59:09.811Z,60.12
2018-06-25T17:01:39.520Z,61.04
2018-06-25T17:04:09.165Z,61.52
2018-06-25T17:06:38.839Z,61.22
2018-06-25T17:09:11.050Z,61.44
2018-06-25T17:11:41.532Z,61.67
2018-06-25T17:14:11.309Z,61.94
2018-06-25T17:16:40.980Z,61.57
2018-06-25T17:19:11.303Z,61.83
2018-06-25T17:21:40.974Z,62.11
2018-06-25T17:24:10.705Z,60.80
2018-06-25T17:26:40.385Z,60.54
2018-06-25T17:29:10.040Z,61.18
2018-06-25T17:31:39.664Z,61.14
2018-06-25T17:34:09.340Z,61.51
2018-06-25T17:36:38.984Z,61.73
2018-06-25T17:39:09.240Z,61.09
2018-06-25T17:41:38.875Z,61.03
2018-06-25T17:44:08.583Z,59.46
2018-06-25T17:46:38.265Z,59.91
2018-06-25T17:49:07.899Z,60.23
2018-06-25T17:51:37.579Z,60.25
2018-06-25T17:54:07.319Z,60.61
2018-06-25T17:56:36.956Z,59.82
2018-06-25T17:59:06.736Z,59.79
2018-06-25T18:01:36.549Z,60.61
2018-06-25T18:04:06.208Z,60.93
2018-06-25T18:06:35.872Z,60.64
2018-06-25T18:09:08.912Z,60.32
2018-06-25T18:11:38.544Z,60.64
2018-06-25T18:14:08.260Z,60.38
2018-06-25T18:16:37.914Z,60.84
2018-06-25T18:19:07.648Z,61.23
2018-06-25T18:21:37.331Z,61.22
2018-06-25T18:24:07.020Z,61.71
2018-06-25T18:26:36.688Z,61.66
2018-06-25T18:29:06.387Z,61.51
2018-06-25T18:31:36.588Z,61.95
2018-06-25T18:34:06.319Z,62.22
2018-06-25T18:36:35.980Z,62.20
2018-06-25T18:39:08.827Z,62.67
2018-06-25T18:41:38.532Z,63.12
2018-06-25T18:44:08.292Z,63.06
2018-06-25T18:46:38.029Z,62.90
2018-06-25T18:49:07.835Z,63.60
2018-06-25T18:51:37.535Z,63.41
2018-06-25T18:54:07.192Z,64.05
2018-06-25T18:56:36.823Z,64.22
2018-06-25T18:59:06.560Z,64.07
2018-06-25T19:01:36.220Z,63.77
2018-06-25T19:04:06.433Z,64.44
2018-06-25T19:06:36.073Z,64.18
2018-06-25T19:09:10.285Z,64.04
2018-06-25T19:11:40.268Z,64.38
2018-06-25T19:14:09.923Z,64.65
2018-06-25T19:16:39.628Z,65.42
2018-06-25T19:19:09.314Z,64.53
2018-06-25T19:21:38.957Z,65.15
2018-06-25T19:24:08.670Z,64.96
2018-06-25T19:26:38.332Z,64.79
2018-06-25T19:29:08.077Z,65.31
2018-06-25T19:31:37.721Z,65.64
2018-06-25T19:34:07.443Z,64.84
2018-06-25T19:36:37.120Z,65.47
2018-06-25T19:39:09.960Z,64.93
2018-06-25T19:41:39.764Z,65.60
2018-06-25T19:44:09.906Z,65.81
2018-06-25T19:46:39.648Z,65.14
2018-06-25T19:49:09.752Z,65.49
2018-06-25T19:51:39.458Z,65.79
2018-06-25T19:54:09.274Z,66.41
2018-06-25T19:56:38.911Z,66.26
2018-06-25T19:59:08.588Z,66.07
2018-06-25T20:01:38.260Z,66.58
2018-06-25T20:04:07.970Z,66.21
2018-06-25T20:06:37.720Z,66.56
2018-06-25T20:09:10.419Z,66.10
2018-06-25T20:11:40.252Z,65.33
2018-06-25T20:14:10.001Z,65.06
2018-06-25T20:16:39.800Z,65.42
2018-06-25T20:19:09.494Z,65.63
2018-06-25T20:21:39.425Z,66.49
2018-06-25T20:24:09.257Z,66.95
2018-06-25T20:26:38.938Z,66.78
2018-06-25T20:29:08.684Z,67.52
2018-06-25T20:31:38.409Z,68.43
2018-06-25T20:34:08.167Z,68.40
2018-06-25T20:36:37.869Z,69.20
2018-06-25T20:39:10.205Z,69.14
2018-06-25T20:41:39.955Z,68.67
2018-06-25T20:44:09.707Z,68.74
2018-06-25T20:46:39.448Z,69.32
2018-06-25T20:49:09.108Z,69.12
2018-06-25T20:51:38.816Z,69.77
2018-06-25T20:54:08.889Z,69.72
2018-06-25T20:56:38.637Z,69.01
2018-06-25T20:59:08.372Z,69.57
2018-06-25T21:01:38.061Z,70.08
2018-06-25T21:04:07.761Z,70.24
2018-06-25T21:06:37.528Z,70.14
2018-06-25T21:09:09.508Z,70.74
2018-06-25T21:11:39.356Z,70.51
2018-06-25T21:14:09.023Z,70.58
2018-06-25T21:16:38.704Z,70.53
2018-06-25T21:19:08.398Z,71.07
2018-06-25T21:21:38.163Z,71.33
2018-06-25T21:24:07.881Z,71.22
2018-06-25T21:26:37.623Z,71.62
2018-06-25T21:29:07.321Z,71.01
2018-06-25T21:31:37.018Z,71.99
2018-06-25T21:34:06.866Z,71.21
2018-06-25T21:36:36.584Z,71.20
2018-06-25T21:39:08.197Z,71.50
2018-06-25T21:41:37.866Z,71.46
2018-06-25T21:44:07.628Z,72.29
2018-06-25T21:46:37.325Z,71.48
2018-06-25T21:49:07.020Z,72.22
2018-06-25T21:51:36.732Z,72.59
2018-06-25T21:54:06.485Z,71.89
2018-06-25T21:56:36.136Z,72.67
2018-06-25T21:59:06.089Z,72.66
2018-06-25T22:01:36.231Z,72.45
2018-06-25T22:04:05.983Z,72.32
2018-06-25T22:06:35.712Z,72.51
2018-06-25T22:09:08.764Z,72.62
2018-06-25T22:11:38.476Z,71.96
2018-06-25T22:14:09.026Z,71.94
2018-06-25T22:16:38.819Z,72.21
2018-06-25T22:19:08.506Z,72.71
2018-06-25T22:21:38.284Z,73.25
2018-06-25T22:24:08.277Z,72.25
2018-06-25T22:26:37.986Z,72.37
2018-06-25T22:29:08.052Z,72.58
2018-06-25T22:31:37.800Z,72.56
2018-06-25T22:34:07.540Z,72.35
2018-06-25T22:36:37.322Z,71.97
2018-06-25T22:39:09.966Z,72.34
2018-06-25T22:41:40.388Z,72.92
2018-06-25T22:44:13.945Z,73.02
2018-06-25T22:46:44.524Z,72.44
2018-06-25T22:49:14.223Z,73.33
2018-06-25T22:51:43.913Z,72.98
2018-06-25T22:54:13.664Z,72.85
2018-06-25T22:56:43.419Z,72.99
2018-06-25T22:59:13.183Z,72.95
2018-06-25T23:01:42.860Z,73.84
2018-06-25T23:04:12.587Z,73.10
2018-06-25T23:06:42.328Z,73.43
2018-06-25T23:09:12.549Z,73.66
2018-06-25T23:11:42.311Z,73.56
2018-06-25T23:14:11.977Z,73.47
2018-06-25T23:16:41.665Z,73.90
2018-06-25T23:19:11.376Z,74.97
2018-06-25T23:21:41.082Z,75.20
2018-06-25T23:24:10.781Z,76.03
2018-06-25T23:26:40.557Z,77.21
2018-06-25T23:29:10.223Z,76.88
2018-06-25T23:31:39.895Z,77.84
2018-06-25T23:34:09.652Z,78.12
2018-06-25T23:36:39.420Z,78.00
2018-06-25T23:39:10.966Z,78.45
2018-06-25T23:41:41.043Z,78.63
2018-06-25T23:44:11.020Z,79.18
2018-06-25T23:46:40.739Z,78.84
2018-06-25T23:49:10.385Z,79.54
2018-06-25T23:51:40.104Z,79.75
2018-06-25T23:54:09.788Z,79.35
2018-06-25T23:56:39.485Z,80.24
2018-06-25T23:59:09.202Z,80.83
